Time;durP1;ratioP1;P1;durP2;ratioP2;P2;SDS_P1;SDS_P2;PMS_P1;PMS_P2;Temp;Humidity;BMP_temperature;BMP_pressure;BME280_temperature;BME280_humidity;BME280_pressure;Samples;Min_cycle;Max_cycle;Signal;HPM_P1;HPM_P2
2021/08/12 00:01:06;;;;;;;;;;;24.70;67.50;;;;;;5129486;27;19924;-59
2021/08/12 00:03:34;;;;;;;;;;;24.70;67.50;;;;;;5134733;27;20018;-60
2021/08/12 00:06:01;;;;;;;;;;;24.60;67.50;;;;;;5131900;27;19932;-60
2021/08/12 00:08:28;;;;;;;;;;;24.60;67.50;;;;;;5134103;27;19959;-59
2021/08/12 00:10:55;;;;;;;;;;;24.60;67.50;;;;;;5134267;27;20394;-59
2021/08/12 00:13:22;;;;;;;;;;;24.60;67.50;;;;;;5133405;27;19927;-59
2021/08/12 00:15:49;;;;;;;;;;;24.60;67.50;;;;;;5134355;27;20332;-59
2021/08/12 00:18:17;;;;;;;;;;;24.60;67.60;;;;;;5131964;27;19923;-60
2021/08/12 00:20:43;;;;;;;;;;;24.60;67.60;;;;;;5133069;27;19974;-59
2021/08/12 00:23:10;;;;;;;;;;;24.60;67.60;;;;;;5114356;27;20450;-60
2021/08/12 00:25:37;;;;;;;;;;;24.60;67.60;;;;;;5132761;27;20014;-60
2021/08/12 00:28:04;;;;;;;;;;;24.60;67.60;;;;;;5129318;27;20006;-59
2021/08/12 00:30:31;;;;;;;;;;;24.60;67.70;;;;;;5117211;27;19930;-59
2021/08/12 00:32:58;;;;;;;;;;;24.60;67.60;;;;;;5115655;27;19962;-59
2021/08/12 00:35:25;;;;;;;;;;;24.60;67.70;;;;;;5131885;27;19924;-59
2021/08/12 00:37:52;;;;;;;;;;;24.50;67.60;;;;;;5134072;27;19931;-59
2021/08/12 00:40:19;;;;;;;;;;;24.60;67.70;;;;;;5115827;27;19966;-59
2021/08/12 00:42:46;;;;;;;;;;;24.50;67.60;;;;;;5114869;28;20002;-59
2021/08/12 00:45:14;;;;;;;;;;;24.60;67.80;;;;;;5133976;27;19930;-60
2021/08/12 00:47:41;;;;;;;;;;;24.50;67.70;;;;;;5115728;27;19923;-59
2021/08/12 00:50:08;;;;;;;;;;;24.50;67.70;;;;;;5130490;27;19924;-59
2021/08/12 00:52:35;;;;;;;;;;;24.50;67.60;;;;;;5132499;27;19959;-59
2021/08/12 00:55:03;;;;;;;;;;;24.50;67.60;;;;;;5133790;27;19927;-60
2021/08/12 00:57:30;;;;;;;;;;;24.50;67.60;;;;;;5132104;27;20390;-59
2021/08/12 00:59:57;;;;;;;;;;;24.50;67.70;;;;;;5132052;27;19923;-60
2021/08/12 01:02:24;;;;;;;;;;;24.50;67.70;;;;;;5132585;27;19923;-60
2021/08/12 01:04:52;;;;;;;;;;;24.50;67.70;;;;;;5131931;27;19924;-60
2021/08/12 01:07:25;;;;;;;;;;;24.50;67.70;;;;;;5132196;28;19930;-59
2021/08/12 01:09:53;;;;;;;;;;;24.50;67.70;;;;;;5131104;28;19955;-59
2021/08/12 01:12:26;;;;;;;;;;;24.40;67.60;;;;;;5136273;27;20002;-60
2021/08/12 01:15:04;;;;;;;;;;;24.50;67.70;;;;;;5136368;27;19971;-59
2021/08/12 01:17:43;;;;;;;;;;;24.50;67.70;;;;;;5137076;27;20328;-59
2021/08/12 01:20:28;;;;;;;;;;;24.50;67.70;;;;;;5136485;27;19923;-60
2021/08/12 01:22:57;;;;;;;;;;;24.50;67.70;;;;;;5136380;27;20256;-60
2021/08/12 01:25:27;;;;;;;;;;;24.50;67.70;;;;;;5126909;27;20002;-59
2021/08/12 01:27:54;;;;;;;;;;;24.50;67.80;;;;;;5119425;27;19959;-59
2021/08/12 01:30:24;;;;;;;;;;;24.50;67.80;;;;;;5119505;27;19927;-59
2021/08/12 01:33:13;;;;;;;;;;;24.50;67.80;;;;;;5128906;27;19923;-60
2021/08/12 01:35:43;;;;;;;;;;;24.40;67.60;;;;;;5130782;27;20341;-59
2021/08/12 01:38:23;;;;;;;;;;;24.50;67.80;;;;;;5137323;27;19927;-59
2021/08/12 01:40:51;;;;;;;;;;;24.40;67.70;;;;;;5137144;27;19979;-59
2021/08/12 01:43:19;;;;;;;;;;;24.40;67.70;;;;;;5137156;27;20014;-59
2021/08/12 01:45:51;;;;;;;;;;;24.40;67.70;;;;;;5135885;27;19930;-59
2021/08/12 01:48:18;;;;;;;;;;;24.40;67.70;;;;;;5135730;27;19923;-59
2021/08/12 01:50:46;;;;;;;;;;;24.40;67.70;;;;;;5136222;27;19924;-59
2021/08/12 01:53:14;;;;;;;;;;;24.40;67.80;;;;;;5135832;27;20010;-59
2021/08/12 01:55:41;;;;;;;;;;;24.40;67.70;;;;;;5136632;27;19972;-59
2021/08/12 01:58:10;;;;;;;;;;;24.40;67.70;;;;;;5134255;27;19974;-59
2021/08/12 02:00:37;;;;;;;;;;;24.40;67.70;;;;;;5136059;27;19998;-59
2021/08/12 02:03:05;;;;;;;;;;;24.40;67.70;;;;;;5135425;27;19924;-59
2021/08/12 02:05:33;;;;;;;;;;;24.40;67.70;;;;;;5135938;27;19967;-59
2021/08/12 02:08:00;;;;;;;;;;;24.40;67.70;;;;;;5134808;27;19986;-59
2021/08/12 02:10:27;;;;;;;;;;;24.40;67.70;;;;;;5136931;27;20006;-59
2021/08/12 02:12:54;;;;;;;;;;;24.40;67.80;;;;;;5135964;27;20390;-60
2021/08/12 02:15:21;;;;;;;;;;;24.40;67.90;;;;;;5135791;27;19928;-59
2021/08/12 02:17:48;;;;;;;;;;;24.40;67.90;;;;;;5135351;27;19966;-59
2021/08/12 02:20:16;;;;;;;;;;;24.40;67.90;;;;;;5117961;27;20320;-59
2021/08/12 02:22:52;;;;;;;;;;;24.40;67.90;;;;;;5118214;27;20329;-59
2021/08/12 02:25:30;;;;;;;;;;;24.30;68.50;;;;;;5118286;27;19923;-59
2021/08/12 02:27:59;;;;;;;;;;;24.30;67.80;;;;;;5117653;27;19993;-58
2021/08/12 02:30:26;;;;;;;;;;;24.30;67.90;;;;;;5118577;27;19963;-58
2021/08/12 02:32:54;;;;;;;;;;;24.30;67.90;;;;;;5136184;27;19927;-58
2021/08/12 02:35:21;;;;;;;;;;;24.30;67.90;;;;;;5135526;27;19973;-58
2021/08/12 02:37:50;;;;;;;;;;;24.30;67.90;;;;;;5132429;27;19962;-58
2021/08/12 02:40:17;;;;;;;;;;;24.30;68.00;;;;;;5136403;27;19966;-58
2021/08/12 02:42:44;;;;;;;;;;;24.30;68.00;;;;;;5136277;27;19923;-58
2021/08/12 02:45:12;;;;;;;;;;;24.30;67.90;;;;;;5134727;27;20432;-58
2021/08/12 02:47:40;;;;;;;;;;;24.30;67.80;;;;;;5133740;27;19985;-58
2021/08/12 02:50:08;;;;;;;;;;;24.30;67.70;;;;;;5133329;27;20294;-58
2021/08/12 02:52:35;;;;;;;;;;;24.30;67.70;;;;;;5134746;27;19978;-59
2021/08/12 02:55:03;;;;;;;;;;;24.30;67.60;;;;;;5134628;27;20451;-59
2021/08/12 02:57:30;;;;;;;;;;;24.30;67.60;;;;;;5134901;27;20015;-58
2021/08/12 02:59:58;;;;;;;;;;;24.30;67.60;;;;;;5134231;27;19959;-59
2021/08/12 03:02:26;;;;;;;;;;;24.30;67.60;;;;;;5135935;27;19978;-58
2021/08/12 03:04:54;;;;;;;;;;;24.30;67.70;;;;;;5129040;27;19928;-58
2021/08/12 03:07:22;;;;;;;;;;;24.30;67.60;;;;;;5118952;27;19927;-58
2021/08/12 03:09:49;;;;;;;;;;;24.30;67.60;;;;;;5122114;27;20421;-60
2021/08/12 03:12:18;;;;;;;;;;;24.30;67.60;;;;;;5132953;27;19968;-59
2021/08/12 03:14:45;;;;;;;;;;;24.30;67.60;;;;;;5133589;27;19993;-59
2021/08/12 03:17:13;;;;;;;;;;;24.30;67.60;;;;;;5119479;27;19928;-58
2021/08/12 03:19:40;;;;;;;;;;;24.30;67.60;;;;;;5134335;27;19971;-58
2021/08/12 03:22:09;;;;;;;;;;;24.30;67.70;;;;;;5135308;27;20014;-59
2021/08/12 03:24:36;;;;;;;;;;;24.20;67.70;;;;;;5116955;27;19971;-58
2021/08/12 03:27:04;;;;;;;;;;;24.20;67.70;;;;;;5134833;27;19927;-58
2021/08/12 03:29:31;;;;;;;;;;;24.20;67.70;;;;;;5134248;27;19924;-58
2021/08/12 03:31:58;;;;;;;;;;;24.20;67.70;;;;;;5134133;27;19962;-59
2021/08/12 03:34:25;;;;;;;;;;;24.20;67.70;;;;;;5123398;27;20395;-58
2021/08/12 03:36:52;;;;;;;;;;;24.20;67.60;;;;;;5131538;27;20328;-59
2021/08/12 03:39:21;;;;;;;;;;;24.20;67.60;;;;;;5134195;27;19970;-59
2021/08/12 03:41:48;;;;;;;;;;;24.20;67.60;;;;;;5132651;27;20282;-58
2021/08/12 03:44:15;;;;;;;;;;;24.20;67.50;;;;;;5132824;27;20361;-58
2021/08/12 03:47:02;;;;;;;;;;;24.20;67.50;;;;;;5130823;27;19970;-59
2021/08/12 03:49:28;;;;;;;;;;;24.20;67.50;;;;;;5133648;27;19924;-58
2021/08/12 03:51:55;;;;;;;;;;;24.20;67.50;;;;;;5132473;27;20039;-58
2021/08/12 03:54:22;;;;;;;;;;;24.20;67.50;;;;;;5132383;27;20014;-60
2021/08/12 03:56:49;;;;;;;;;;;24.20;68.30;;;;;;5133022;27;19924;-59
2021/08/12 03:59:16;;;;;;;;;;;24.20;67.60;;;;;;5133399;27;20006;-58
2021/08/12 04:01:43;;;;;;;;;;;24.20;67.60;;;;;;5124783;27;19923;-58
2021/08/12 04:04:10;;;;;;;;;;;24.20;67.60;;;;;;5123953;27;19924;-58
2021/08/12 04:06:37;;;;;;;;;;;24.20;67.60;;;;;;5134676;27;19927;-58
2021/08/12 04:09:04;;;;;;;;;;;24.20;67.60;;;;;;5133274;27;19927;-59
2021/08/12 04:11:31;;;;;;;;;;;24.20;67.50;;;;;;5133465;27;19923;-58
2021/08/12 04:13:58;;;;;;;;;;;24.20;67.50;;;;;;5129792;27;20003;-58
2021/08/12 04:16:25;;;;;;;;;;;24.20;67.40;;;;;;5120026;27;20295;-59
2021/08/12 04:18:52;;;;;;;;;;;24.20;67.40;;;;;;5134456;27;20279;-58
2021/08/12 04:21:19;;;;;;;;;;;24.20;67.40;;;;;;5133094;27;19959;-59
2021/08/12 04:23:46;;;;;;;;;;;24.20;67.40;;;;;;5134122;27;19930;-59
2021/08/12 04:26:13;;;;;;;;;;;24.20;67.40;;;;;;5134298;27;19955;-59
2021/08/12 04:28:47;;;;;;;;;;;24.20;67.40;;;;;;5134008;27;19978;-58
2021/08/12 04:31:14;;;;;;;;;;;24.20;67.30;;;;;;5133164;27;19996;-58
2021/08/12 04:33:41;;;;;;;;;;;24.20;67.30;;;;;;5132448;27;20383;-59
2021/08/12 04:36:08;;;;;;;;;;;24.30;67.30;;;;;;5133045;27;19927;-59
2021/08/12 04:38:35;;;;;;;;;;;24.20;67.20;;;;;;5131312;27;20286;-58
2021/08/12 04:41:02;;;;;;;;;;;24.30;67.30;;;;;;5132354;27;19924;-59
2021/08/12 04:43:30;;;;;;;;;;;24.20;67.20;;;;;;5131253;27;19924;-58
2021/08/12 04:45:57;;;;;;;;;;;24.20;67.20;;;;;;5130618;27;20367;-58
2021/08/12 04:48:24;;;;;;;;;;;24.30;67.20;;;;;;5132617;27;19954;-59
2021/08/12 04:50:51;;;;;;;;;;;24.30;67.20;;;;;;5133522;27;19965;-59
2021/08/12 04:53:18;;;;;;;;;;;24.30;67.20;;;;;;5132206;27;20006;-59
2021/08/12 04:55:45;;;;;;;;;;;24.30;67.10;;;;;;5131015;27;19963;-59
2021/08/12 04:58:12;;;;;;;;;;;24.30;67.10;;;;;;5124898;27;19924;-59
2021/08/12 05:00:39;;;;;;;;;;;24.30;67.10;;;;;;5124242;27;19923;-59
2021/08/12 05:03:07;;;;;;;;;;;24.30;67.00;;;;;;5126823;27;19928;-59
2021/08/12 05:05:35;;;;;;;;;;;24.40;67.10;;;;;;5121495;27;19928;-59
2021/08/12 05:08:03;;;;;;;;;;;24.40;67.00;;;;;;5132022;27;20002;-59
2021/08/12 05:10:29;;;;;;;;;;;24.40;67.00;;;;;;5131349;28;19946;-59
2021/08/12 05:12:57;;;;;;;;;;;24.40;66.90;;;;;;5130937;28;19985;-59
2021/08/12 05:15:24;;;;;;;;;;;24.40;66.80;;;;;;5131263;28;20367;-59
2021/08/12 05:17:51;;;;;;;;;;;24.40;66.80;;;;;;5116324;28;19924;-59
2021/08/12 05:20:18;;;;;;;;;;;24.40;66.70;;;;;;5113890;28;19928;-59
2021/08/12 05:22:45;;;;;;;;;;;24.40;66.60;;;;;;5115329;28;19981;-58
2021/08/12 05:25:12;;;;;;;;;;;24.50;66.70;;;;;;5131499;28;20359;-59
2021/08/12 05:27:39;;;;;;;;;;;24.50;66.50;;;;;;5133661;28;20013;-59
2021/08/12 05:30:06;;;;;;;;;;;24.50;66.50;;;;;;5133468;28;19970;-59
2021/08/12 05:32:33;;;;;;;;;;;24.60;66.50;;;;;;5133302;28;20006;-59
2021/08/12 05:35:00;;;;;;;;;;;24.60;66.40;;;;;;5130823;28;19962;-60
2021/08/12 05:37:27;;;;;;;;;;;24.60;66.40;;;;;;5133076;28;20375;-59
2021/08/12 05:39:54;;;;;;;;;;;24.60;66.30;;;;;;5132096;28;19924;-59
2021/08/12 05:42:21;;;;;;;;;;;24.60;66.30;;;;;;5133440;28;19924;-59
2021/08/12 05:44:48;;;;;;;;;;;24.60;66.20;;;;;;5133044;28;19923;-58
2021/08/12 05:47:15;;;;;;;;;;;24.60;66.00;;;;;;5131578;28;20383;-59
2021/08/12 05:49:42;;;;;;;;;;;24.70;66.10;;;;;;5131629;28;19923;-60
2021/08/12 05:52:09;;;;;;;;;;;24.70;66.00;;;;;;5124345;28;19924;-59
2021/08/12 05:54:36;;;;;;;;;;;24.70;66.00;;;;;;5114734;28;19931;-59
2021/08/12 05:57:03;;;;;;;;;;;24.70;65.90;;;;;;5113752;28;19931;-59
2021/08/12 05:59:30;;;;;;;;;;;24.80;65.90;;;;;;5107807;27;19923;-59
2021/08/12 06:01:57;;;;;;;;;;;24.80;65.80;;;;;;5112329;28;19976;-59
2021/08/12 06:04:24;;;;;;;;;;;24.80;65.80;;;;;;5124068;27;19953;-59
2021/08/12 06:06:51;;;;;;;;;;;24.80;65.80;;;;;;5135969;27;19931;-59
2021/08/12 06:09:18;;;;;;;;;;;24.80;65.70;;;;;;5136721;27;20414;-59
2021/08/12 06:11:45;;;;;;;;;;;24.90;65.70;;;;;;5136634;27;19977;-59
2021/08/12 06:14:12;;;;;;;;;;;24.90;65.60;;;;;;5135635;27;19923;-59
2021/08/12 06:16:39;;;;;;;;;;;24.90;65.70;;;;;;5099915;27;20380;-59
2021/08/12 06:19:06;;;;;;;;;;;24.90;65.50;;;;;;5135058;27;19924;-59
2021/08/12 06:21:33;;;;;;;;;;;24.90;65.50;;;;;;5135596;27;19931;-58
2021/08/12 06:24:00;;;;;;;;;;;24.90;65.40;;;;;;5134862;27;19971;-59
2021/08/12 06:26:27;;;;;;;;;;;24.90;65.40;;;;;;5133798;27;20338;-59
2021/08/12 06:28:54;;;;;;;;;;;24.90;65.40;;;;;;5134898;27;20018;-59
2021/08/12 06:31:23;;;;;;;;;;;24.90;65.50;;;;;;5136157;27;19923;-59
2021/08/12 06:33:50;;;;;;;;;;;24.90;65.60;;;;;;5128796;27;19989;-59
2021/08/12 06:36:17;;;;;;;;;;;24.90;65.50;;;;;;5131551;27;20272;-59
2021/08/12 06:38:44;;;;;;;;;;;24.90;65.40;;;;;;5135073;27;20006;-59
2021/08/12 06:41:10;;;;;;;;;;;24.90;65.40;;;;;;5124022;27;20010;-60
2021/08/12 06:43:37;;;;;;;;;;;25.00;65.50;;;;;;5128004;27;19930;-59
2021/08/12 06:46:04;;;;;;;;;;;25.00;66.10;;;;;;5126756;27;20015;-59
2021/08/12 06:48:31;;;;;;;;;;;25.00;65.30;;;;;;5117788;27;19931;-59
2021/08/12 06:50:58;;;;;;;;;;;25.00;65.20;;;;;;5124737;27;20390;-59
2021/08/12 06:53:25;;;;;;;;;;;25.10;65.20;;;;;;5129590;27;20406;-59
2021/08/12 06:55:52;;;;;;;;;;;25.10;65.20;;;;;;5121805;27;20014;-59
2021/08/12 06:58:20;;;;;;;;;;;25.20;65.10;;;;;;5134483;27;20002;-59
2021/08/12 07:00:47;;;;;;;;;;;25.20;65.20;;;;;;5135963;27;20268;-59
2021/08/12 07:03:14;;;;;;;;;;;25.20;65.20;;;;;;5135429;27;19934;-59
2021/08/12 07:05:41;;;;;;;;;;;25.20;65.10;;;;;;5133648;27;20360;-59
2021/08/12 07:08:09;;;;;;;;;;;25.20;65.10;;;;;;5116442;27;19959;-59
2021/08/12 07:10:36;;;;;;;;;;;25.20;65.20;;;;;;5134010;27;19924;-59
2021/08/12 07:13:03;;;;;;;;;;;25.20;65.20;;;;;;5133777;27;19923;-60
2021/08/12 07:15:30;;;;;;;;;;;25.20;65.10;;;;;;5135334;27;20371;-59
2021/08/12 07:17:57;;;;;;;;;;;25.20;65.00;;;;;;5135269;27;19923;-59
2021/08/12 07:20:24;;;;;;;;;;;25.30;65.00;;;;;;5134442;27;20003;-59
2021/08/12 07:22:51;;;;;;;;;;;25.30;65.00;;;;;;5135483;27;19927;-59
2021/08/12 07:25:20;;;;;;;;;;;25.30;65.00;;;;;;5135397;27;19979;-59
2021/08/12 07:27:49;;;;;;;;;;;25.30;64.90;;;;;;5135130;27;20022;-59
2021/08/12 07:30:17;;;;;;;;;;;25.30;65.00;;;;;;5134036;27;20298;-59
2021/08/12 07:32:44;;;;;;;;;;;25.30;65.20;;;;;;5135354;27;19927;-59
2021/08/12 07:35:11;;;;;;;;;;;25.30;65.20;;;;;;5131477;27;20414;-59
2021/08/12 07:37:41;;;;;;;;;;;25.30;65.30;;;;;;5135240;27;19927;-59
2021/08/12 07:40:11;;;;;;;;;;;25.30;65.30;;;;;;5133730;27;19923;-59
2021/08/12 07:42:38;;;;;;;;;;;25.30;66.20;;;;;;5134686;27;19966;-60
2021/08/12 07:45:05;;;;;;;;;;;25.30;65.40;;;;;;5133195;27;20011;-59
2021/08/12 07:47:32;;;;;;;;;;;25.30;65.30;;;;;;5125569;27;19959;-60
2021/08/12 07:50:00;;;;;;;;;;;25.30;65.50;;;;;;5123661;27;19959;-59
2021/08/12 07:52:27;;;;;;;;;;;25.40;65.50;;;;;;5133413;27;20410;-59
2021/08/12 07:54:54;;;;;;;;;;;25.40;65.40;;;;;;5133364;27;20393;-60
2021/08/12 07:57:21;;;;;;;;;;;25.40;66.10;;;;;;5132790;27;19923;-59
2021/08/12 07:59:48;;;;;;;;;;;25.40;65.40;;;;;;5131438;27;20418;-59
2021/08/12 08:02:15;;;;;;;;;;;25.40;66.20;;;;;;5099465;27;19923;-59
2021/08/12 08:04:43;;;;;;;;;;;25.40;65.50;;;;;;5133412;27;19927;-59
2021/08/12 08:07:10;;;;;;;;;;;25.40;65.70;;;;;;5134420;27;19930;-59
2021/08/12 08:09:37;;;;;;;;;;;25.50;65.90;;;;;;5134311;27;19932;-59
2021/08/12 08:12:04;;;;;;;;;;;25.50;65.80;;;;;;5114276;27;19927;-59
2021/08/12 08:14:31;;;;;;;;;;;25.50;65.80;;;;;;5133777;27;19927;-59
2021/08/12 08:16:58;;;;;;;;;;;25.50;65.80;;;;;;5133401;27;20317;-59
2021/08/12 08:19:25;;;;;;;;;;;25.50;65.70;;;;;;5134712;27;19931;-60
2021/08/12 08:21:53;;;;;;;;;;;25.50;65.60;;;;;;5133289;27;20379;-59
2021/08/12 08:24:20;;;;;;;;;;;25.60;65.80;;;;;;5133025;27;20014;-59
2021/08/12 08:26:47;;;;;;;;;;;25.60;65.60;;;;;;5132394;27;20428;-59
2021/08/12 08:29:14;;;;;;;;;;;25.60;65.50;;;;;;5116063;27;19992;-59
2021/08/12 08:31:42;;;;;;;;;;;25.60;65.40;;;;;;5132601;27;19958;-59
2021/08/12 08:34:09;;;;;;;;;;;25.70;65.60;;;;;;5129713;27;19923;-59
2021/08/12 08:36:36;;;;;;;;;;;25.70;65.40;;;;;;5133316;27;20047;-59
2021/08/12 08:39:03;;;;;;;;;;;25.70;65.90;;;;;;5132538;27;19930;-59
2021/08/12 08:41:30;;;;;;;;;;;25.70;66.00;;;;;;5134142;27;19930;-59
2021/08/12 08:43:59;;;;;;;;;;;25.70;66.20;;;;;;5133880;27;19923;-59
2021/08/12 08:46:26;;;;;;;;;;;25.70;66.20;;;;;;5132499;27;20036;-59
2021/08/12 08:48:55;;;;;;;;;;;25.70;66.30;;;;;;5132573;27;19923;-59
2021/08/12 08:51:22;;;;;;;;;;;25.70;66.20;;;;;;5131145;27;19986;-59
2021/08/12 08:53:49;;;;;;;;;;;25.70;65.80;;;;;;5115667;27;19992;-59
2021/08/12 08:56:18;;;;;;;;;;;25.70;66.00;;;;;;5132149;27;19980;-59
2021/08/12 08:58:46;;;;;;;;;;;25.80;66.60;;;;;;5133542;27;19992;-59
2021/08/12 09:01:13;;;;;;;;;;;25.80;66.30;;;;;;5132729;27;19972;-59
2021/08/12 09:03:40;;;;;;;;;;;25.80;66.10;;;;;;5132532;27;19923;-59
2021/08/12 09:06:07;;;;;;;;;;;25.80;66.30;;;;;;5133138;27;20014;-59
2021/08/12 09:08:34;;;;;;;;;;;25.80;66.10;;;;;;5132118;27;20339;-59
2021/08/12 09:11:01;;;;;;;;;;;25.80;66.20;;;;;;5132515;28;20443;-59
2021/08/12 09:13:29;;;;;;;;;;;25.80;65.90;;;;;;5132874;28;20004;-59
2021/08/12 09:15:56;;;;;;;;;;;25.80;66.00;;;;;;5133638;28;19933;-59
2021/08/12 09:18:25;;;;;;;;;;;25.80;66.20;;;;;;5133333;28;19923;-59
2021/08/12 09:20:53;;;;;;;;;;;25.90;65.90;;;;;;5130880;28;19923;-59
2021/08/12 09:23:21;;;;;;;;;;;25.90;65.90;;;;;;5099968;28;20077;-59
2021/08/12 09:25:52;;;;;;;;;;;25.90;66.00;;;;;;5098807;28;19937;-59
2021/08/12 09:28:21;;;;;;;;;;;25.90;66.00;;;;;;5115176;28;20378;-59
2021/08/12 09:30:48;;;;;;;;;;;25.90;66.30;;;;;;5129317;28;19966;-59
2021/08/12 09:33:16;;;;;;;;;;;26.00;66.20;;;;;;5123967;27;19963;-59
2021/08/12 09:35:44;;;;;;;;;;;26.00;66.20;;;;;;5124845;27;20341;-59
2021/08/12 09:38:12;;;;;;;;;;;26.00;66.00;;;;;;5129955;27;20263;-59
2021/08/12 09:40:40;;;;;;;;;;;26.00;65.70;;;;;;5137102;27;19968;-59
2021/08/12 09:43:07;;;;;;;;;;;26.00;65.60;;;;;;5134961;27;20108;-59
2021/08/12 09:45:35;;;;;;;;;;;26.00;65.90;;;;;;5135560;27;20014;-59
2021/08/12 09:48:11;;;;;;;;;;;26.00;65.70;;;;;;5136979;27;19923;-60
2021/08/12 09:50:39;;;;;;;;;;;26.10;65.80;;;;;;5118006;27;19924;-59
2021/08/12 09:53:07;;;;;;;;;;;26.10;65.70;;;;;;5135105;27;20298;-60
2021/08/12 09:55:38;;;;;;;;;;;26.10;65.90;;;;;;5136870;27;20351;-59
2021/08/12 09:58:07;;;;;;;;;;;26.10;65.70;;;;;;5135853;27;19998;-59
2021/08/12 10:00:35;;;;;;;;;;;26.10;65.70;;;;;;5137076;27;19984;-59
2021/08/12 10:03:19;;;;;;;;;;;26.10;66.10;;;;;;5135394;27;19923;-60
2021/08/12 10:05:46;;;;;;;;;;;26.10;65.90;;;;;;5135645;27;19924;-59
2021/08/12 10:08:24;;;;;;;;;;;26.10;65.80;;;;;;5132870;27;19999;-59
2021/08/12 10:10:51;;;;;;;;;;;26.10;65.70;;;;;;5124160;27;19923;-59
2021/08/12 10:13:17;;;;;;;;;;;26.10;65.50;;;;;;5116969;27;20375;-60
2021/08/12 10:15:49;;;;;;;;;;;26.20;65.70;;;;;;5132894;27;20371;-59
2021/08/12 10:18:18;;;;;;;;;;;26.10;65.30;;;;;;5118490;27;19976;-59
2021/08/12 10:20:46;;;;;;;;;;;26.20;65.50;;;;;;5121211;27;20388;-59
2021/08/12 10:23:13;;;;;;;;;;;26.20;65.30;;;;;;5136702;27;20328;-59
2021/08/12 10:25:40;;;;;;;;;;;26.20;65.20;;;;;;5136601;27;19966;-59
2021/08/12 10:28:08;;;;;;;;;;;26.20;65.20;;;;;;5135539;27;20418;-59
2021/08/12 10:30:35;;;;;;;;;;;26.20;65.20;;;;;;5136328;27;19924;-59
2021/08/12 10:33:04;;;;;;;;;;;26.20;65.20;;;;;;5135338;27;20421;-59
2021/08/12 10:35:32;;;;;;;;;;;26.20;65.10;;;;;;5136280;27;19965;-59
2021/08/12 10:38:00;;;;;;;;;;;26.20;65.20;;;;;;5134320;27;19966;-59
2021/08/12 10:40:31;;;;;;;;;;;26.20;65.00;;;;;;5136209;27;19963;-59
2021/08/12 10:42:59;;;;;;;;;;;26.20;65.00;;;;;;5134743;27;19970;-59
2021/08/12 10:45:27;;;;;;;;;;;26.20;64.80;;;;;;5135327;27;19977;-59
2021/08/12 10:48:00;;;;;;;;;;;26.20;65.00;;;;;;5133411;27;19923;-59
2021/08/12 10:50:31;;;;;;;;;;;26.20;65.00;;;;;;5135002;27;20023;-59
2021/08/12 10:53:07;;;;;;;;;;;26.20;65.00;;;;;;5136443;27;19939;-59
2021/08/12 10:55:35;;;;;;;;;;;26.20;65.10;;;;;;5133698;27;19923;-59
2021/08/12 10:58:17;;;;;;;;;;;26.20;65.10;;;;;;5135586;27;19923;-59
2021/08/12 11:00:45;;;;;;;;;;;26.20;65.10;;;;;;5135702;27;19923;-59
2021/08/12 11:03:12;;;;;;;;;;;26.30;65.10;;;;;;5134361;27;19924;-59
2021/08/12 11:05:58;;;;;;;;;;;26.30;65.00;;;;;;5122154;27;19924;-59
2021/08/12 11:08:43;;;;;;;;;;;26.30;65.00;;;;;;5132550;27;20374;-59
2021/08/12 11:11:10;;;;;;;;;;;26.30;65.00;;;;;;5118818;27;19978;-60
2021/08/12 11:13:37;;;;;;;;;;;26.40;64.80;;;;;;5133368;27;19990;-59
2021/08/12 11:16:04;;;;;;;;;;;26.40;64.90;;;;;;5135337;27;20323;-60
2021/08/12 11:18:46;;;;;;;;;;;26.40;64.70;;;;;;5133920;27;19937;-59
2021/08/12 11:21:31;;;;;;;;;;;26.40;64.40;;;;;;5134046;27;19984;-60
2021/08/12 11:23:59;;;;;;;;;;;26.40;64.30;;;;;;5133917;27;20378;-60
2021/08/12 11:26:47;;;;;;;;;;;26.50;64.10;;;;;;5120479;27;19924;-59
2021/08/12 11:29:23;;;;;;;;;;;26.50;63.90;;;;;;5133237;27;19938;-60
2021/08/12 11:31:49;;;;;;;;;;;26.60;63.60;;;;;;5132744;27;19924;-59
2021/08/12 11:34:22;;;;;;;;;;;26.60;63.50;;;;;;5132941;27;20032;-60
2021/08/12 11:37:10;;;;;;;;;;;26.60;63.30;;;;;;5133942;27;19946;-59
2021/08/12 11:39:55;;;;;;;;;;;26.60;63.40;;;;;;5120096;27;19923;-59
2021/08/12 11:42:27;;;;;;;;;;;26.60;62.90;;;;;;5134232;27;19976;-59
2021/08/12 11:44:56;;;;;;;;;;;26.70;62.90;;;;;;5134251;27;20068;-60
2021/08/12 11:47:23;;;;;;;;;;;26.70;62.60;;;;;;5115774;27;19945;-60
2021/08/12 11:49:54;;;;;;;;;;;26.70;62.60;;;;;;5132111;27;20375;-59
2021/08/12 11:52:25;;;;;;;;;;;26.70;62.70;;;;;;5134824;27;19967;-60
2021/08/12 11:54:52;;;;;;;;;;;26.70;62.60;;;;;;5134723;27;19962;-60
2021/08/12 11:57:19;;;;;;;;;;;26.70;62.70;;;;;;5133089;27;20002;-59
2021/08/12 11:59:46;;;;;;;;;;;26.70;62.60;;;;;;5134619;27;19977;-60
2021/08/12 12:02:13;;;;;;;;;;;26.70;62.60;;;;;;5120322;27;19978;-60
2021/08/12 12:04:40;;;;;;;;;;;26.70;62.70;;;;;;5116062;27;19963;-59
2021/08/12 12:07:07;;;;;;;;;;;26.70;62.70;;;;;;5117678;27;20014;-60
2021/08/12 12:09:35;;;;;;;;;;;26.70;62.70;;;;;;5125105;27;20410;-60
2021/08/12 12:12:03;;;;;;;;;;;26.70;62.70;;;;;;5133804;27;20360;-60
2021/08/12 12:14:32;;;;;;;;;;;26.70;62.60;;;;;;5133525;27;19924;-60
2021/08/12 12:17:05;;;;;;;;;;;26.70;62.60;;;;;;5116131;27;19924;-60
2021/08/12 12:19:32;;;;;;;;;;;26.70;62.60;;;;;;5131750;27;20403;-59
2021/08/12 12:21:59;;;;;;;;;;;26.70;62.50;;;;;;5127757;27;19966;-60
2021/08/12 12:24:26;;;;;;;;;;;26.70;62.50;;;;;;5103173;27;19963;-59
2021/08/12 12:26:57;;;;;;;;;;;26.70;62.40;;;;;;5131798;27;20010;-60
2021/08/12 12:29:24;;;;;;;;;;;26.70;62.50;;;;;;5133142;27;20328;-59
2021/08/12 12:31:57;;;;;;;;;;;26.70;62.50;;;;;;5134030;27;20387;-60
2021/08/12 12:34:24;;;;;;;;;;;26.60;62.30;;;;;;5133808;27;20066;-60
2021/08/12 12:36:51;;;;;;;;;;;26.60;62.30;;;;;;5132864;27;20006;-60
2021/08/12 12:39:19;;;;;;;;;;;26.60;62.40;;;;;;5134024;27;20014;-59
2021/08/12 12:41:59;;;;;;;;;;;26.60;62.40;;;;;;5132693;27;19936;-59
2021/08/12 12:44:26;;;;;;;;;;;26.60;62.40;;;;;;5133058;27;19924;-60
2021/08/12 12:46:53;;;;;;;;;;;26.70;62.50;;;;;;5132509;27;20006;-59
2021/08/12 12:49:24;;;;;;;;;;;26.60;62.30;;;;;;5116317;27;19923;-60
2021/08/12 12:51:51;;;;;;;;;;;26.60;62.30;;;;;;5131909;27;20015;-60
2021/08/12 12:54:36;;;;;;;;;;;26.60;62.30;;;;;;5133093;27;19994;-60
2021/08/12 12:57:03;;;;;;;;;;;26.60;62.40;;;;;;5115472;27;19930;-59
2021/08/12 12:59:30;;;;;;;;;;;26.60;63.10;;;;;;5132294;27;19930;-60
2021/08/12 13:01:58;;;;;;;;;;;26.60;62.40;;;;;;5115645;27;19928;-60
2021/08/12 13:04:26;;;;;;;;;;;26.60;62.40;;;;;;5133779;27;19931;-60
2021/08/12 13:06:53;;;;;;;;;;;26.60;62.50;;;;;;5131929;27;20005;-60
2021/08/12 13:09:36;;;;;;;;;;;26.60;62.50;;;;;;5131556;27;19975;-59
2021/08/12 13:12:21;;;;;;;;;;;26.60;62.50;;;;;;5132844;27;19927;-59
2021/08/12 13:14:48;;;;;;;;;;;26.60;62.50;;;;;;5133562;28;20018;-60
2021/08/12 13:17:31;;;;;;;;;;;26.60;62.50;;;;;;5133442;28;19924;-60
2021/08/12 13:20:10;;;;;;;;;;;26.60;62.50;;;;;;5132366;28;19966;-60
2021/08/12 13:22:41;;;;;;;;;;;26.50;62.50;;;;;;5133006;28;20002;-60
2021/08/12 13:25:14;;;;;;;;;;;26.50;62.50;;;;;;5132469;28;20406;-59
2021/08/12 13:27:48;;;;;;;;;;;26.50;62.50;;;;;;5133386;28;19970;-60
2021/08/12 13:30:16;;;;;;;;;;;26.50;62.50;;;;;;5133726;28;20022;-60
2021/08/12 13:32:43;;;;;;;;;;;26.60;62.60;;;;;;5132520;28;19977;-59
2021/08/12 13:35:10;;;;;;;;;;;26.60;62.50;;;;;;5133270;28;19955;-59
2021/08/12 13:37:37;;;;;;;;;;;26.50;62.60;;;;;;5133530;28;20014;-60
2021/08/12 13:40:06;;;;;;;;;;;26.50;62.50;;;;;;5133191;28;19923;-60
2021/08/12 13:42:37;;;;;;;;;;;26.50;62.60;;;;;;5133213;28;19924;-60
2021/08/12 13:45:04;;;;;;;;;;;26.50;62.50;;;;;;5130935;28;19969;-59
2021/08/12 13:47:31;;;;;;;;;;;26.60;62.70;;;;;;5131689;28;19959;-59
2021/08/12 13:49:58;;;;;;;;;;;26.60;62.70;;;;;;5133228;28;20411;-59
2021/08/12 13:52:25;;;;;;;;;;;26.60;62.60;;;;;;5120736;28;19927;-59
2021/08/12 13:54:52;;;;;;;;;;;26.60;62.60;;;;;;5114751;28;20428;-60
2021/08/12 13:57:19;;;;;;;;;;;26.60;62.60;;;;;;5114396;28;19924;-60
2021/08/12 13:59:46;;;;;;;;;;;26.60;62.60;;;;;;5116429;28;19924;-60
2021/08/12 14:02:13;;;;;;;;;;;26.60;62.60;;;;;;5122569;28;19976;-60
2021/08/12 14:04:40;;;;;;;;;;;26.60;62.60;;;;;;5131581;28;20379;-60
2021/08/12 14:07:07;;;;;;;;;;;26.60;62.50;;;;;;5126199;28;20379;-60
2021/08/12 14:09:34;;;;;;;;;;;26.60;62.50;;;;;;5118103;28;19923;-59
2021/08/12 14:12:01;;;;;;;;;;;26.60;62.50;;;;;;5133038;28;19924;-60
2021/08/12 14:14:28;;;;;;;;;;;26.60;62.50;;;;;;5133062;28;19970;-59
2021/08/12 14:16:55;;;;;;;;;;;26.60;62.50;;;;;;5131727;28;19931;-59
2021/08/12 14:19:22;;;;;;;;;;;26.60;62.50;;;;;;5131392;27;19995;-60
2021/08/12 14:21:49;;;;;;;;;;;26.60;62.50;;;;;;5136594;27;20034;-60
2021/08/12 14:24:15;;;;;;;;;;;26.60;62.60;;;;;;5135831;27;20011;-59